Portada
METAR-TAF:

METAR-TAF

Aeroports :

Pohnpei, Micronèsia

latitud: 06-59N, longitud: 158-12E, altitud: 2 m

Observació

L'informe es va fer fa 6 hores i 54 minuts, a les 04:50 UTC
Vent 4 kt del Oest
Temperatura 26°C
Humitat 89%
Pressió 1009 hPa
Visibilitat: 24.1 km
Cel ennuvolat a una alçada de 1700 ft, Cumulus congestus.
Cel cobert a una alçada de 13000 ft

METAR: PTPN 210450Z 26004KT 15SM BKN017TCU OVC130 26/24 A2980 RMK TCU ALQDS LAST

Hora: 22:44 (11:44 UTC)

Pronòstic

L'informe es va fer fa 6 hores i 16 minuts, a les 05:28 UTC
Pronòstic vàlid del 21 a les 06 UTC al 22 a les 06 UTC
Vent 5 kt del Sud-Oest
Visibilitat: 10 km
Cel ennuvolat a una alçada de 1600 ft
Cel cobert a una alçada de 10000 ft
pluja

TAF: PTPN 210528Z 2106/2206 23005KT P6SM -RA BKN016 OVC100

Observacions i pronòstics meteorològics de més de 4000 aeroports (METAR i TAF).

Les estacions disponibles són els punts grocs i vermells al mapa.

Posi el ratolí al punt desitjat per veure el nom de l'estació.

Feu clic per veure les observacions i els pronòstics meteorològics.

Per canviar el mapa: feu clic els botons verds amb una creu de color negre per apropar; al botó verd amb un guió per allunyar la imatge; o en les fletxes verdes per a mapes adjacents.


METAR-TAF: